createdAt,value
2023-02-07T00:01:22.229Z,103170.53
2023-02-07T00:03:51.933Z,103165.19
2023-02-07T00:06:26.313Z,103169.56
2023-02-07T00:08:53.346Z,103158.91
2023-02-07T00:11:23.240Z,103163.47
2023-02-07T00:13:53.334Z,103161.78
2023-02-07T00:16:20.367Z,103160.00
2023-02-07T00:18:47.761Z,103164.47
2023-02-07T00:21:16.947Z,103160.81
2023-02-07T00:23:44.714Z,103155.59
2023-02-07T00:26:12.471Z,103151.19
2023-02-07T00:28:39.638Z,103141.38
2023-02-07T00:31:15.179Z,103133.38
2023-02-07T00:33:44.556Z,103129.81
2023-02-07T00:36:14.352Z,103130.81
2023-02-07T00:38:41.199Z,103129.03
2023-02-07T00:41:08.276Z,103123.63
2023-02-07T00:43:35.030Z,103120.97
2023-02-07T00:46:05.432Z,103117.44
2023-02-07T00:48:32.695Z,103117.31
2023-02-07T00:50:59.778Z,103128.91
2023-02-07T00:53:29.104Z,103133.41
2023-02-07T00:55:55.949Z,103131.66
2023-02-07T00:58:23.058Z,103118.38
2023-02-07T01:00:50.474Z,103125.50
2023-02-07T01:03:18.258Z,103129.06
2023-02-07T01:05:45.238Z,103124.56
2023-02-07T01:08:11.920Z,103122.78
2023-02-07T01:10:43.717Z,103127.22
2023-02-07T01:13:11.480Z,103124.50
2023-02-07T01:15:43.662Z,103120.91
2023-02-07T01:18:11.163Z,103124.44
2023-02-07T01:20:37.885Z,103127.94
2023-02-07T01:23:06.070Z,103138.59
2023-02-07T01:25:33.099Z,103144.75
2023-02-07T01:27:59.938Z,103155.16
2023-02-07T01:30:27.321Z,103172.88
2023-02-07T01:32:53.984Z,103165.69
2023-02-07T01:35:20.710Z,103161.25
2023-02-07T01:37:47.435Z,103152.47
2023-02-07T01:40:14.127Z,103151.63
2023-02-07T01:42:40.947Z,103161.38
2023-02-07T01:45:08.152Z,103160.44
2023-02-07T01:47:37.292Z,103162.19
2023-02-07T01:50:05.027Z,103163.97
2023-02-07T01:52:37.697Z,103148.91
2023-02-07T01:55:10.536Z,103138.25
2023-02-07T01:57:37.718Z,103129.44
2023-02-07T02:00:05.907Z,103128.66
2023-02-07T02:02:35.007Z,103122.59
2023-02-07T02:05:02.818Z,103134.22
2023-02-07T02:07:33.974Z,103137.69
2023-02-07T02:10:01.373Z,103133.34
2023-02-07T02:12:30.937Z,103139.38
2023-02-07T02:14:57.544Z,103142.97
2023-02-07T02:17:57.876Z,103135.03
2023-02-07T02:21:03.157Z,103138.56
2023-02-07T02:23:51.435Z,103140.44
2023-02-07T02:26:48.995Z,103140.28
2023-02-07T02:29:34.072Z,103146.31
2023-02-07T02:32:13.858Z,103153.34
2023-02-07T02:34:43.412Z,103155.00
2023-02-07T02:37:23.194Z,103157.66
2023-02-07T02:40:05.109Z,103168.31
2023-02-07T02:42:42.692Z,103178.00
2023-02-07T02:45:44.861Z,103184.09
2023-02-07T02:48:12.610Z,103189.34
2023-02-07T02:50:39.776Z,103192.88
2023-02-07T02:53:06.463Z,103190.03
2023-02-07T02:55:42.478Z,103203.19
2023-02-07T02:58:20.176Z,103206.69
2023-02-07T03:01:11.835Z,103200.34
2023-02-07T03:04:14.778Z,103201.19
2023-02-07T03:07:17.305Z,103195.84
2023-02-07T03:10:09.706Z,103194.88
2023-02-07T03:13:22.452Z,103196.53
2023-02-07T03:16:15.203Z,103202.66
2023-02-07T03:18:57.452Z,103184.94
2023-02-07T03:22:02.256Z,103187.63
2023-02-07T03:24:33.599Z,103183.44
2023-02-07T03:27:04.674Z,103175.56
2023-02-07T03:29:32.871Z,103181.84
2023-02-07T03:32:03.398Z,103178.25
2023-02-07T03:35:09.439Z,103169.53
2023-02-07T03:37:40.891Z,103169.44
2023-02-07T03:40:09.035Z,103172.94
2023-02-07T03:42:52.954Z,103174.69
2023-02-07T03:45:21.169Z,103175.47
2023-02-07T03:47:48.550Z,103171.00
2023-02-07T03:50:16.679Z,103173.72
2023-02-07T03:52:43.602Z,103171.88
2023-02-07T03:55:10.443Z,103168.34
2023-02-07T03:57:37.660Z,103169.22
2023-02-07T04:00:06.131Z,103164.72
2023-02-07T04:02:32.829Z,103166.50
2023-02-07T04:04:59.453Z,103167.28
2023-02-07T04:07:26.161Z,103176.97
2023-02-07T04:09:52.835Z,103192.00
2023-02-07T04:12:19.447Z,103192.03
2023-02-07T04:14:46.098Z,103198.22
2023-02-07T04:17:12.724Z,103198.88
2023-02-07T04:19:39.419Z,103212.13
2023-02-07T04:22:06.083Z,103213.03
2023-02-07T04:24:32.900Z,103204.53
2023-02-07T04:26:59.863Z,103203.31
2023-02-07T04:29:26.773Z,103209.47
2023-02-07T04:31:53.478Z,103206.72
2023-02-07T04:34:20.271Z,103212.84
2023-02-07T04:36:46.909Z,103212.78
2023-02-07T04:39:13.578Z,103225.88
2023-02-07T04:41:40.282Z,103225.94
2023-02-07T04:44:06.986Z,103225.03
2023-02-07T04:46:34.222Z,103225.00
2023-02-07T04:49:04.563Z,103210.94
2023-02-07T04:51:31.553Z,103211.00
2023-02-07T04:53:58.255Z,103214.59
2023-02-07T04:56:25.237Z,103224.25
2023-02-07T04:58:52.016Z,103216.16
2023-02-07T05:01:18.733Z,103211.66
2023-02-07T05:03:45.477Z,103208.84
2023-02-07T05:06:13.122Z,103210.56
2023-02-07T05:08:39.774Z,103222.09
2023-02-07T05:11:07.077Z,103215.03
2023-02-07T05:13:34.185Z,103207.09
2023-02-07T05:16:05.062Z,103212.31
2023-02-07T05:18:32.184Z,103216.75
2023-02-07T05:20:59.480Z,103222.09
2023-02-07T05:23:26.306Z,103222.78
2023-02-07T05:25:53.152Z,103226.38
2023-02-07T05:28:20.314Z,103222.78
2023-02-07T05:30:47.218Z,103228.91
2023-02-07T05:33:13.978Z,103234.13
2023-02-07T05:35:43.241Z,103238.50
2023-02-07T05:38:12.760Z,103243.75
2023-02-07T05:40:40.891Z,103241.81
2023-02-07T05:43:09.645Z,103264.47
2023-02-07T05:45:37.244Z,103264.56
2023-02-07T05:48:04.884Z,103262.88
2023-02-07T05:50:31.729Z,103262.91
2023-02-07T05:52:58.368Z,103259.38
2023-02-07T05:55:25.090Z,103268.25
2023-02-07T05:57:51.822Z,103270.94
2023-02-07T06:00:19.810Z,103273.53
2023-02-07T06:02:46.828Z,103274.34
2023-02-07T06:05:16.420Z,103290.22
2023-02-07T06:07:44.271Z,103287.50
2023-02-07T06:10:11.656Z,103298.06
2023-02-07T06:12:39.790Z,103296.38
2023-02-07T06:15:06.943Z,103294.66
2023-02-07T06:17:33.611Z,103297.31
2023-02-07T06:20:00.384Z,103291.25
2023-02-07T06:22:27.067Z,103301.97
2023-02-07T06:24:53.743Z,103303.13
2023-02-07T06:27:21.020Z,103294.97
2023-02-07T06:29:47.702Z,103299.25
2023-02-07T06:32:14.342Z,103302.75
2023-02-07T06:34:41.230Z,103308.88
2023-02-07T06:37:08.019Z,103312.47
2023-02-07T06:39:34.745Z,103314.56
2023-02-07T06:42:01.457Z,103315.50
2023-02-07T06:44:28.101Z,103313.81
2023-02-07T06:46:56.124Z,103319.22
2023-02-07T06:49:22.793Z,103318.09
2023-02-07T06:51:49.494Z,103318.91
2023-02-07T06:54:16.233Z,103322.31
2023-02-07T06:56:42.867Z,103324.91
2023-02-07T06:59:10.175Z,103334.59
2023-02-07T07:01:36.860Z,103325.84
2023-02-07T07:04:03.651Z,103328.50
2023-02-07T07:06:30.337Z,103327.50
2023-02-07T07:08:57.061Z,103326.69
2023-02-07T07:11:24.424Z,103328.63
2023-02-07T07:13:51.116Z,103331.19
2023-02-07T07:16:17.928Z,103327.63
2023-02-07T07:18:44.773Z,103325.41
2023-02-07T07:21:12.688Z,103324.66
2023-02-07T07:23:39.376Z,103314.31
2023-02-07T07:26:06.317Z,103314.38
2023-02-07T07:28:33.054Z,103321.31
2023-02-07T07:31:06.708Z,103316.06
2023-02-07T07:33:34.275Z,103314.34
2023-02-07T07:36:02.185Z,103317.16
2023-02-07T07:38:29.747Z,103303.97
2023-02-07T07:40:56.868Z,103288.81
2023-02-07T07:43:23.654Z,103286.31
2023-02-07T07:45:55.697Z,103275.16
2023-02-07T07:48:23.354Z,103272.59
2023-02-07T07:50:50.500Z,103277.97
2023-02-07T07:53:18.460Z,103276.41
2023-02-07T07:55:56.866Z,103277.47
2023-02-07T07:58:27.558Z,103264.28
2023-02-07T08:00:54.595Z,103266.25
2023-02-07T08:03:21.479Z,103272.53
2023-02-07T08:05:48.796Z,103276.25
2023-02-07T08:08:16.398Z,103275.44
2023-02-07T08:10:43.530Z,103273.75
2023-02-07T08:13:10.310Z,103273.91
2023-02-07T08:15:37.702Z,103276.59
2023-02-07T08:18:04.585Z,103280.25
2023-02-07T08:20:32.034Z,103279.63
2023-02-07T08:22:59.030Z,103261.22
2023-02-07T08:25:26.532Z,103264.78
2023-02-07T08:27:53.975Z,103257.81
2023-02-07T08:30:21.639Z,103260.41
2023-02-07T08:32:48.633Z,103263.97
2023-02-07T08:35:15.410Z,103265.78
2023-02-07T08:37:42.195Z,103258.88
2023-02-07T08:40:09.436Z,103272.97
2023-02-07T08:42:36.102Z,103266.06
2023-02-07T08:45:04.658Z,103269.75
2023-02-07T08:47:32.149Z,103279.59
2023-02-07T08:49:58.926Z,103273.53
2023-02-07T08:52:25.758Z,103277.16
2023-02-07T08:54:52.662Z,103264.78
2023-02-07T08:57:23.078Z,103258.53
2023-02-07T08:59:49.773Z,103271.94
2023-02-07T09:02:16.493Z,103281.75
2023-02-07T09:04:43.380Z,103272.06
2023-02-07T09:07:11.492Z,103283.69
2023-02-07T09:09:38.421Z,103299.72
2023-02-07T09:12:05.272Z,103307.75
2023-02-07T09:14:32.081Z,103315.84
2023-02-07T09:16:58.945Z,103328.38
2023-02-07T09:19:25.625Z,103339.09
2023-02-07T09:21:52.308Z,103353.44
2023-02-07T09:24:19.021Z,103374.81
2023-02-07T09:26:45.708Z,103367.75
2023-02-07T09:29:14.314Z,103453.63
2023-02-07T09:31:42.133Z,103465.22
2023-02-07T09:34:09.420Z,103482.25
2023-02-07T09:36:36.413Z,103493.91
2023-02-07T09:39:04.400Z,103520.63
2023-02-07T09:41:42.798Z,103549.13
2023-02-07T09:44:36.002Z,103544.91
2023-02-07T09:47:10.564Z,103572.50
2023-02-07T09:49:41.514Z,103587.75
2023-02-07T09:52:17.071Z,103597.59
2023-02-07T09:54:52.912Z,103610.19
2023-02-07T09:57:28.377Z,103596.81
2023-02-07T10:00:02.484Z,103604.03
2023-02-07T10:02:39.081Z,103633.50
2023-02-07T10:05:18.480Z,103635.44
2023-02-07T10:07:47.524Z,103647.09
2023-02-07T10:10:20.171Z,103667.66
2023-02-07T10:13:06.610Z,103689.03
2023-02-07T10:15:55.191Z,103699.84
2023-02-07T10:18:42.624Z,103713.34
2023-02-07T10:21:44.760Z,103743.53
2023-02-07T10:24:30.228Z,103754.38
2023-02-07T10:27:13.812Z,103765.97
2023-02-07T10:29:52.560Z,103771.41
2023-02-07T10:32:23.623Z,103776.00
2023-02-07T10:34:55.330Z,103794.72
2023-02-07T10:37:28.822Z,103799.13
2023-02-07T10:40:28.962Z,103817.91
2023-02-07T10:43:10.582Z,103813.50
2023-02-07T10:45:41.518Z,103821.53
2023-02-07T10:48:18.720Z,103826.00
2023-02-07T10:50:45.862Z,103843.59
2023-02-07T10:53:54.733Z,103829.53
2023-02-07T10:56:27.997Z,103842.97
2023-02-07T10:58:57.858Z,103842.91
2023-02-07T11:01:27.800Z,103864.09
2023-02-07T11:03:55.225Z,103868.56
2023-02-07T11:06:30.994Z,103859.16
2023-02-07T11:09:12.248Z,103877.06
2023-02-07T11:11:40.676Z,103871.72
2023-02-07T11:14:15.401Z,103879.75
2023-02-07T11:16:47.152Z,103886.97
2023-02-07T11:19:20.460Z,103882.56
2023-02-07T11:21:49.215Z,103894.19
2023-02-07T11:24:25.336Z,103902.22
2023-02-07T11:27:06.902Z,103922.44
2023-02-07T11:29:53.930Z,103925.25
2023-02-07T11:32:23.542Z,103932.59
2023-02-07T11:34:58.121Z,103926.28
2023-02-07T11:37:35.317Z,103920.25
2023-02-07T11:40:23.275Z,103939.84
2023-02-07T11:43:12.582Z,103940.56
2023-02-07T11:45:42.786Z,103943.31
2023-02-07T11:48:35.605Z,103948.78
2023-02-07T11:51:04.921Z,103945.38
2023-02-07T11:53:43.459Z,103958.84
2023-02-07T11:57:01.591Z,103978.56
2023-02-07T11:59:28.509Z,103984.59
2023-02-07T12:02:03.531Z,103985.44
2023-02-07T12:04:38.736Z,103995.44
2023-02-07T12:07:16.857Z,104005.94
2023-02-07T12:09:45.361Z,104017.50
2023-02-07T12:12:19.909Z,104018.41
2023-02-07T12:14:58.419Z,104018.53
2023-02-07T12:17:36.750Z,104024.94
2023-02-07T12:20:25.805Z,104010.81
2023-02-07T12:23:41.285Z,104026.81
2023-02-07T12:26:30.493Z,104033.09
2023-02-07T12:29:27.412Z,104034.00
2023-02-07T12:31:57.267Z,104032.19
2023-02-07T12:34:26.776Z,104038.38
2023-02-07T12:37:00.248Z,104040.44
2023-02-07T12:40:02.079Z,104036.88
2023-02-07T12:42:43.220Z,104049.28
2023-02-07T12:45:18.884Z,104058.16
2023-02-07T12:48:08.794Z,104052.94
2023-02-07T12:50:55.222Z,104058.50
2023-02-07T12:53:40.443Z,104058.38
2023-02-07T12:56:39.736Z,104065.38
2023-02-07T12:59:19.162Z,104082.50
2023-02-07T13:02:22.604Z,104082.53
2023-02-07T13:04:52.174Z,104087.78
2023-02-07T13:07:42.304Z,104096.81
2023-02-07T13:10:25.968Z,104086.88
2023-02-07T13:13:04.679Z,104091.44
2023-02-07T13:15:51.557Z,104092.25
2023-02-07T13:18:27.161Z,104087.81
2023-02-07T13:21:13.427Z,104088.84
2023-02-07T13:23:44.382Z,104092.41
2023-02-07T13:26:17.147Z,104087.91
2023-02-07T13:28:54.241Z,104092.41
2023-02-07T13:31:39.178Z,104090.59
2023-02-07T13:34:23.318Z,104082.81
2023-02-07T13:36:52.695Z,104077.28
2023-02-07T13:39:37.025Z,104086.22
2023-02-07T13:42:19.930Z,104088.91
2023-02-07T13:45:07.032Z,104080.84
2023-02-07T13:47:36.975Z,104083.56
2023-02-07T13:50:03.596Z,104073.78
2023-02-07T13:52:51.731Z,104079.13
2023-02-07T13:55:27.297Z,104081.84
2023-02-07T13:58:12.483Z,104072.84
2023-02-07T14:00:48.473Z,104075.59
2023-02-07T14:03:21.348Z,104073.06
2023-02-07T14:05:48.524Z,104075.06
2023-02-07T14:08:18.198Z,104068.88
2023-02-07T14:10:49.294Z,104058.13
2023-02-07T14:13:24.497Z,104049.03
2023-02-07T14:16:10.254Z,104049.06
2023-02-07T14:18:52.106Z,104027.59
2023-02-07T14:21:18.734Z,104022.16
2023-02-07T14:23:57.698Z,104018.56
2023-02-07T14:26:39.627Z,104034.56
2023-02-07T14:29:24.489Z,104045.25
2023-02-07T14:31:55.511Z,104038.03
2023-02-07T14:34:24.835Z,104056.00
2023-02-07T14:36:55.008Z,104046.88
2023-02-07T14:39:31.241Z,104066.56
2023-02-07T14:42:11.476Z,104069.16
2023-02-07T14:44:40.653Z,104080.03
2023-02-07T14:47:15.695Z,104082.72
2023-02-07T14:49:46.518Z,104064.75
2023-02-07T14:52:21.147Z,104065.59
2023-02-07T14:54:55.700Z,104071.88
2023-02-07T14:57:32.706Z,104076.31
2023-02-07T15:00:03.958Z,104064.69
2023-02-07T15:02:32.311Z,104072.75
2023-02-07T15:05:29.259Z,104060.31
2023-02-07T15:08:01.947Z,104056.72
2023-02-07T15:10:30.596Z,104044.03
2023-02-07T15:12:57.277Z,104046.66
2023-02-07T15:15:27.069Z,104055.59
2023-02-07T15:17:57.913Z,104069.22
2023-02-07T15:20:34.608Z,104062.00
2023-02-07T15:23:04.108Z,104053.03
2023-02-07T15:25:32.793Z,104038.50
2023-02-07T15:28:26.232Z,104046.44
2023-02-07T15:31:04.853Z,104052.69
2023-02-07T15:33:50.916Z,104046.28
2023-02-07T15:36:28.352Z,104046.19
2023-02-07T15:38:55.509Z,104044.47
2023-02-07T15:41:22.345Z,104039.03
2023-02-07T15:44:06.534Z,104035.34
2023-02-07T15:46:56.756Z,104041.53
2023-02-07T15:49:36.517Z,104061.13
2023-02-07T15:52:12.201Z,104069.91
2023-02-07T15:54:43.762Z,104084.81
2023-02-07T15:57:34.565Z,104115.09
2023-02-07T16:00:08.688Z,104139.06
2023-02-07T16:02:39.843Z,104147.91
2023-02-07T16:05:11.898Z,104141.56
2023-02-07T16:07:42.449Z,104151.25
2023-02-07T16:10:24.307Z,104151.94
2023-02-07T16:13:02.558Z,104148.13
2023-02-07T16:15:38.597Z,104156.22
2023-02-07T16:18:06.409Z,104161.31
2023-02-07T16:20:36.291Z,104164.72
2023-02-07T16:23:07.601Z,104165.53
2023-02-07T16:25:36.361Z,104172.75
2023-02-07T16:28:10.106Z,104179.75
2023-02-07T16:30:39.397Z,104178.59
2023-02-07T16:33:08.163Z,104174.94
2023-02-07T16:35:34.871Z,104189.09
2023-02-07T16:38:01.535Z,104186.19
2023-02-07T16:40:28.256Z,104196.88
2023-02-07T16:42:56.190Z,104192.19
2023-02-07T16:45:29.694Z,104191.19
2023-02-07T16:47:59.248Z,104197.28
2023-02-07T16:50:28.450Z,104190.88
2023-02-07T16:52:59.603Z,104192.47
2023-02-07T16:55:28.576Z,104187.03
2023-02-07T16:57:57.338Z,104180.66
2023-02-07T17:00:26.096Z,104177.00
2023-02-07T17:02:53.693Z,104175.19
2023-02-07T17:05:24.036Z,104175.88
2023-02-07T17:07:51.191Z,104171.31
2023-02-07T17:10:23.209Z,104175.69
2023-02-07T17:12:49.976Z,104178.41
2023-02-07T17:15:17.038Z,104183.69
2023-02-07T17:17:44.086Z,104176.47
2023-02-07T17:20:21.287Z,104174.66
2023-02-07T17:22:48.902Z,104176.28
2023-02-07T17:25:16.780Z,104165.56
2023-02-07T17:27:43.654Z,104161.97
2023-02-07T17:30:16.872Z,104166.44
2023-02-07T17:32:43.971Z,104166.38
2023-02-07T17:35:11.156Z,104172.25
2023-02-07T17:37:38.039Z,104166.16
2023-02-07T17:40:20.096Z,104165.22
2023-02-07T17:42:46.897Z,104167.69
2023-02-07T17:45:13.631Z,104167.69
2023-02-07T17:47:40.395Z,104165.81
2023-02-07T17:50:08.160Z,104169.34
2023-02-07T17:52:35.006Z,104161.53
2023-02-07T17:55:01.693Z,104151.34
2023-02-07T17:57:28.355Z,104150.41
2023-02-07T17:59:55.112Z,104150.19
2023-02-07T18:02:21.913Z,104154.41
2023-02-07T18:04:48.663Z,104156.06
2023-02-07T18:07:15.348Z,104155.13
2023-02-07T18:09:41.988Z,104150.59
2023-02-07T18:12:08.839Z,104155.28
2023-02-07T18:14:35.469Z,104157.09
2023-02-07T18:17:02.092Z,104152.44
2023-02-07T18:19:32.573Z,104155.84
2023-02-07T18:21:59.286Z,104151.31
2023-02-07T18:24:25.957Z,104150.34
2023-02-07T18:26:53.550Z,104154.84
2023-02-07T18:29:20.435Z,104158.22
2023-02-07T18:31:47.096Z,104152.91
2023-02-07T18:34:13.911Z,104158.28
2023-02-07T18:36:41.042Z,104165.34
2023-02-07T18:39:09.160Z,104175.38
2023-02-07T18:41:36.059Z,104158.56
2023-02-07T18:44:03.135Z,104168.34
2023-02-07T18:46:31.780Z,104171.94
2023-02-07T18:48:58.795Z,104178.22
2023-02-07T18:51:25.824Z,104166.81
2023-02-07T18:53:54.909Z,104166.69
2023-02-07T18:56:26.623Z,104166.53
2023-02-07T18:58:56.499Z,104166.53
2023-02-07T19:01:28.663Z,104156.63
2023-02-07T19:03:56.294Z,104160.09
2023-02-07T19:06:25.561Z,104163.63
2023-02-07T19:08:53.936Z,104167.88
2023-02-07T19:11:20.856Z,104168.72
2023-02-07T19:13:47.835Z,104166.84
2023-02-07T19:16:22.675Z,104168.63
2023-02-07T19:18:50.400Z,104168.44
2023-02-07T19:21:21.684Z,104169.88
2023-02-07T19:23:48.622Z,104168.84
2023-02-07T19:26:15.458Z,104176.84
2023-02-07T19:28:42.228Z,104166.88
2023-02-07T19:31:17.584Z,104170.41
2023-02-07T19:33:45.346Z,104164.13
2023-02-07T19:36:13.320Z,104165.84
2023-02-07T19:38:41.172Z,104158.81
2023-02-07T19:41:08.631Z,104163.28
2023-02-07T19:43:36.177Z,104151.03
2023-02-07T19:46:02.982Z,104147.75
2023-02-07T19:48:29.653Z,104139.28
2023-02-07T19:51:04.137Z,104122.94
2023-02-07T19:53:32.193Z,104128.28
2023-02-07T19:56:02.378Z,104119.25
2023-02-07T19:58:31.129Z,104121.59
2023-02-07T20:00:57.947Z,104122.28
2023-02-07T20:03:25.374Z,104124.16
2023-02-07T20:05:53.106Z,104126.56
2023-02-07T20:08:21.043Z,104119.03
2023-02-07T20:10:48.609Z,104125.25
2023-02-07T20:13:15.435Z,104130.25
2023-02-07T20:15:44.199Z,104123.00
2023-02-07T20:18:12.772Z,104129.03
2023-02-07T20:20:47.165Z,104134.13
2023-02-07T20:23:15.032Z,104122.56
2023-02-07T20:25:42.120Z,104124.06
2023-02-07T20:28:09.258Z,104125.88
2023-02-07T20:30:42.460Z,104128.38
2023-02-07T20:33:09.258Z,104123.28
2023-02-07T20:35:39.191Z,104128.69
2023-02-07T20:38:06.093Z,104119.72
2023-02-07T20:40:32.781Z,104116.84
2023-02-07T20:42:59.455Z,104119.50
2023-02-07T20:45:26.247Z,104108.69
2023-02-07T20:47:52.873Z,104108.03
2023-02-07T20:50:19.676Z,104119.72
2023-02-07T20:52:46.432Z,104116.25
2023-02-07T20:55:13.163Z,104112.94
2023-02-07T20:57:39.781Z,104109.31
2023-02-07T21:00:08.532Z,104114.56
2023-02-07T21:02:35.224Z,104108.19
2023-02-07T21:05:01.949Z,104113.88
2023-02-07T21:07:28.723Z,104101.59
2023-02-07T21:09:55.581Z,104106.91
2023-02-07T21:12:22.313Z,104103.63
2023-02-07T21:14:48.954Z,104104.91
2023-02-07T21:17:15.661Z,104104.16
2023-02-07T21:19:42.538Z,104106.13
2023-02-07T21:22:09.610Z,104098.97
2023-02-07T21:24:36.247Z,104101.66
2023-02-07T21:27:05.938Z,104094.84
2023-02-07T21:29:34.111Z,104097.50
2023-02-07T21:32:00.989Z,104095.72
2023-02-07T21:34:31.512Z,104088.75
2023-02-07T21:36:58.144Z,104090.94
2023-02-07T21:39:24.959Z,104088.25
2023-02-07T21:41:51.990Z,104084.47
2023-02-07T21:44:21.129Z,104080.06
2023-02-07T21:46:52.290Z,104071.16
2023-02-07T21:49:20.647Z,104072.06
2023-02-07T21:51:49.295Z,104071.19
2023-02-07T21:54:16.454Z,104069.31
2023-02-07T21:56:45.180Z,104058.84
2023-02-07T21:59:16.984Z,104057.88
2023-02-07T22:01:44.976Z,104056.06
2023-02-07T22:04:12.370Z,104057.13
2023-02-07T22:06:43.703Z,104055.44
2023-02-07T22:09:13.531Z,104057.31
2023-02-07T22:11:41.045Z,104053.06
2023-02-07T22:14:07.709Z,104045.59
2023-02-07T22:16:34.969Z,104039.44
2023-02-07T22:19:05.011Z,104034.13
2023-02-07T22:21:35.118Z,104031.34
2023-02-07T22:24:02.908Z,104025.00
2023-02-07T22:26:30.153Z,104025.00
2023-02-07T22:28:57.900Z,104023.13
2023-02-07T22:31:27.138Z,104022.06
2023-02-07T22:33:55.747Z,104015.72
2023-02-07T22:36:26.400Z,104019.22
2023-02-07T22:38:54.340Z,104021.88
2023-02-07T22:41:21.572Z,104027.50
2023-02-07T22:43:48.705Z,104028.16
2023-02-07T22:46:18.436Z,104024.22
2023-02-07T22:48:45.961Z,104025.25
2023-02-07T22:51:21.210Z,104030.84
2023-02-07T22:53:48.798Z,104018.88
2023-02-07T22:56:15.756Z,104012.88
2023-02-07T22:58:42.550Z,104018.00
2023-02-07T23:01:24.438Z,104012.94
2023-02-07T23:03:52.543Z,104009.13
2023-02-07T23:06:20.154Z,104014.25
2023-02-07T23:08:49.530Z,104015.06
2023-02-07T23:11:18.514Z,104012.31
2023-02-07T23:13:45.549Z,104000.84
2023-02-07T23:16:17.547Z,104004.53
2023-02-07T23:18:44.772Z,104005.28
2023-02-07T23:21:13.495Z,104012.25
2023-02-07T23:23:40.432Z,104012.13
2023-02-07T23:26:09.198Z,104012.41
2023-02-07T23:28:37.330Z,104007.19
2023-02-07T23:31:09.729Z,104006.25
2023-02-07T23:33:37.029Z,103998.28
2023-02-07T23:36:04.851Z,104003.66
2023-02-07T23:38:31.612Z,104001.75
2023-02-07T23:40:58.306Z,103996.44
2023-02-07T23:43:25.321Z,103988.28
2023-02-07T23:45:52.516Z,103993.50
2023-02-07T23:48:19.418Z,103982.31
2023-02-07T23:50:51.435Z,103984.97
2023-02-07T23:53:19.840Z,103989.50
2023-02-07T23:55:46.650Z,103993.78
2023-02-07T23:58:13.269Z,103984.88
